Independence, Mississippi
Current Conditions -  °F | °C
As of 8:55 PM on Sunday 21 Dec 2014 (Local Time) from KOLV Reporting Station
Clear Clear  
Wind Chill: 39°   Ceiling: Unl
Heat Index: 43°   Visibility: 10mi
Dew Point: 41°   Wind: 7mph
Humidity: 93%   Direction: 130°SE
Pressure: 29.98"   Gusts: NA
Location:  34.71°N, 89.81°W
Report Text: KOLV 220255Z AUTO 13006KT 10SM CLR 06/05 A2998 RMK A01 P000
Loading
Personal Weather Stations






























Interactive Weather Map New forecast layout! Learn more

10-Day Weather Forecast

Advertisements
Track Severe Weather on mobile